Terminal Aerodrome Forecast
Issued by NWS Brownsville, TX

Current Version | Previous Version | Text Only | Print | Product List | Glossary On
Versions: 1 2 3 4 5 6 7 8 9 10 11 12 13 14
000
FTUS44 KBRO 271700 CCA
TAFMFE
TAF COR
KMFE 271740Z 2718/2818 16006KT P6SM SKC
     FM272000 13006KT P6SM SKC
     FM272300 09007KT P6SM SKC
     FM280100 VRB05KT P6SM SKC
      TEMPO 2810/2814 5SM BR
     FM281500 19008KT P6SM SKC=

USA.gov is the U.S. government's official web portal to all federal, state and local government web resources and services.